Time;durP1;ratioP1;P1;durP2;ratioP2;P2;SDS_P1;SDS_P2;PMS_P1;PMS_P2;Temp;Humidity;BMP_temperature;BMP_pressure;BME280_temperature;BME280_humidity;BME280_pressure;Samples;Min_cycle;Max_cycle;Signal;HPM_P1;HPM_P2
2020/12/02 00:02:16;;;;;;;39.87;19.53;;;;;;;2.59;100.00;100560.25;648458;221;24910;-71
2020/12/02 00:04:44;;;;;;;40.23;18.80;;;;;;;2.63;100.00;100554.02;648453;221;24903;-72
2020/12/02 00:07:11;;;;;;;46.60;19.43;;;;;;;2.72;100.00;100552.69;648615;221;24953;-73
2020/12/02 00:09:39;;;;;;;37.37;18.07;;;;;;;2.75;100.00;100547.38;644821;218;24884;-71
2020/12/02 00:12:07;;;;;;;37.57;17.20;;;;;;;2.73;100.00;100550.48;644368;221;24872;-71
2020/12/02 00:14:35;;;;;;;42.83;18.83;;;;;;;2.71;100.00;100550.20;634760;225;25030;-72
2020/12/02 00:17:03;;;;;;;32.00;16.90;;;;;;;2.66;100.00;100560.26;638587;223;24878;-71
2020/12/02 00:19:31;;;;;;;42.23;18.37;;;;;;;2.58;100.00;100562.91;639427;223;24783;-73
2020/12/02 00:22:00;;;;;;;35.90;17.43;;;;;;;2.60;100.00;100562.36;642159;223;24914;-71
2020/12/02 00:24:28;;;;;;;35.90;18.23;;;;;;;2.62;100.00;100560.52;642477;223;24830;-71
2020/12/02 00:26:56;;;;;;;32.37;17.20;;;;;;;2.73;100.00;100562.04;626474;229;24926;-74
2020/12/02 00:29:24;;;;;;;39.17;17.10;;;;;;;2.73;100.00;100559.47;641969;224;24838;-75
2020/12/02 00:31:52;;;;;;;34.03;17.73;;;;;;;2.77;100.00;100565.25;638264;225;24955;-71
2020/12/02 00:34:20;;;;;;;35.40;18.00;;;;;;;2.77;100.00;100558.38;641810;224;25024;-72
2020/12/02 00:36:47;;;;;;;33.00;16.10;;;;;;;2.70;100.00;100558.37;641441;224;24829;-71
2020/12/02 00:39:15;;;;;;;34.60;17.40;;;;;;;2.76;100.00;100558.01;642431;220;27146;-72
2020/12/02 00:41:46;;;;;;;36.20;16.73;;;;;;;2.68;100.00;100554.61;638551;221;25247;-71
2020/12/02 00:44:13;;;;;;;34.80;16.40;;;;;;;2.72;100.00;100555.71;635971;225;28141;-71
2020/12/02 00:46:43;;;;;;;34.97;16.80;;;;;;;2.64;100.00;100553.10;643038;220;24951;-71
2020/12/02 00:49:09;;;;;;;35.27;16.80;;;;;;;2.66;100.00;100560.72;639182;221;24873;-70
2020/12/02 00:51:37;;;;;;;38.50;15.90;;;;;;;2.68;100.00;100551.21;645792;222;24848;-71
2020/12/02 00:54:05;;;;;;;31.87;17.00;;;;;;;2.69;100.00;100554.15;647913;221;24830;-72
2020/12/02 00:56:33;;;;;;;38.38;19.77;;;;;;;2.79;100.00;100555.72;632263;225;43736;-72
2020/12/02 00:59:01;;;;;;;35.30;18.07;;;;;;;2.72;100.00;100550.12;637978;225;23737;-73
2020/12/02 01:01:32;;;;;;;28.30;16.10;;;;;;;2.72;100.00;100546.27;633424;225;24965;-71
2020/12/02 01:04:00;;;;;;;30.27;15.67;;;;;;;2.68;100.00;100538.37;645071;223;24822;-71
2020/12/02 01:06:28;;;;;;;28.73;16.30;;;;;;;2.77;100.00;100543.42;633335;223;24964;-71
2020/12/02 01:08:55;;;;;;;37.05;20.08;;;;;;;2.97;100.00;100542.67;637235;223;32878;-71
2020/12/02 01:11:24;;;;;;;36.67;17.77;;;;;;;2.95;100.00;100545.76;642231;222;23792;-71
2020/12/02 01:13:53;;;;;;;32.83;16.47;;;;;;;2.90;100.00;100542.64;625711;230;25034;-71
2020/12/02 01:16:23;;;;;;;27.17;15.80;;;;;;;2.91;100.00;100546.86;632825;225;24898;-71
2020/12/02 01:18:51;;;;;;;34.08;18.75;;;;;;;2.98;100.00;100539.19;630044;225;32805;-72
2020/12/02 01:21:22;;;;;;;30.00;16.77;;;;;;;2.82;100.00;100540.98;639158;224;23798;-71
2020/12/02 01:23:50;;;;;;;33.10;16.40;;;;;;;2.79;100.00;100551.41;637433;225;24952;-70
2020/12/02 01:26:18;;;;;;;35.70;17.50;;;;;;;2.81;100.00;100557.28;635702;226;25023;-71
2020/12/02 01:28:46;;;;;;;32.90;16.50;;;;;;;2.74;100.00;100553.42;638469;220;24863;-72
2020/12/02 01:31:13;;;;;;;30.53;15.67;;;;;;;2.88;100.00;100555.20;638707;225;24964;-72
2020/12/02 01:33:41;;;;;;;32.10;14.60;;;;;;;2.80;100.00;100550.49;626492;229;24905;-72
2020/12/02 01:36:09;;;;;;;26.87;14.00;;;;;;;2.84;100.00;100551.17;639551;224;25382;-72
2020/12/02 01:38:37;;;;;;;33.63;19.02;;;;;;;3.15;100.00;100548.94;620799;225;33517;-71
2020/12/02 01:41:05;;;;;;;39.13;20.62;;;;;;;3.27;100.00;100550.80;633412;221;32988;-71
2020/12/02 01:43:34;;;;;;;29.30;17.13;;;;;;;3.01;100.00;100547.62;634323;225;23839;-71
2020/12/02 01:46:02;;;;;;;28.33;15.77;;;;;;;3.10;100.00;100544.08;638428;220;24952;-70
2020/12/02 01:48:53;;;;;;;33.87;16.97;;;;;;;3.09;100.00;100545.42;630236;225;26157;-72
2020/12/02 01:51:26;;;;;;;40.63;16.17;;;;;;;3.07;100.00;100549.83;647012;221;29074;-71
2020/12/02 01:53:55;;;;;;;37.17;17.63;;;;;;;3.01;100.00;100542.03;636661;225;25020;-72
2020/12/02 01:56:23;;;;;;;50.52;23.42;;;;;;;3.35;100.00;100547.30;632793;224;32924;-73
2020/12/02 01:58:55;;;;;;;51.07;21.47;;;;;;;3.25;100.00;100540.61;626413;225;23750;-72
2020/12/02 02:01:23;;;;;;;71.10;22.97;;;;;;;3.27;100.00;100534.91;639556;224;25289;-71
2020/12/02 02:03:51;;;;;;;60.85;26.30;;;;;;;3.35;100.00;100538.30;632707;225;33194;-74
2020/12/02 02:06:19;;;;;;;77.00;28.50;;;;;;;3.41;100.00;100539.23;630797;225;32759;-72
2020/12/02 02:08:47;;;;;;;69.43;23.47;;;;;;;3.17;100.00;100541.96;636299;226;23763;-71
2020/12/02 02:11:15;;;;;;;56.77;21.50;;;;;;;3.06;100.00;100540.01;638425;221;24974;-71
2020/12/02 02:13:54;;;;;;;63.77;22.30;;;;;;;2.96;100.00;100543.59;638749;221;24979;-71
2020/12/02 02:16:22;;;;;;;97.40;31.30;;;;;;;3.20;100.00;100535.34;632258;225;32757;-71
2020/12/02 02:18:50;;;;;;;71.83;26.30;;;;;;;3.04;100.00;100544.88;625605;230;23735;-71
2020/12/02 02:21:18;;;;;;;61.57;23.70;;;;;;;3.02;100.00;100537.25;643789;222;26503;-71
2020/12/02 02:23:45;;;;;;;80.20;28.80;;;;;;;3.09;100.00;100534.69;632069;225;33032;-71
2020/12/02 02:26:19;;;;;;;81.28;29.35;;;;;;;3.14;100.00;100522.88;632413;225;33212;-71
2020/12/02 02:28:48;;;;;;;90.85;31.20;;;;;;;3.09;100.00;100528.72;632158;225;32822;-72
2020/12/02 02:31:15;;;;;;;75.60;27.33;;;;;;;2.91;100.00;100534.02;638030;225;24104;-72
2020/12/02 02:33:43;;;;;;;68.70;23.83;;;;;;;2.87;100.00;100536.86;637859;225;28115;-71
2020/12/02 02:36:12;;;;;;;77.37;25.63;;;;;;;2.90;100.00;100536.22;637553;225;25247;-71
2020/12/02 02:38:40;;;;;;;72.77;23.30;;;;;;;2.88;100.00;100534.66;638076;223;24872;-72
2020/12/02 02:41:08;;;;;;;98.35;32.03;;;;;;;3.03;100.00;100520.09;637255;221;32920;-72
2020/12/02 02:43:36;;;;;;;81.60;29.20;;;;;;;2.94;100.00;100518.87;635682;225;23738;-72
2020/12/02 02:46:04;;;;;;;75.20;25.20;;;;;;;2.91;100.00;100518.61;632700;225;24889;-73
2020/12/02 02:48:32;;;;;;;85.50;25.93;;;;;;;2.84;100.00;100512.64;647492;221;24805;-71
2020/12/02 02:51:00;;;;;;;79.70;24.87;;;;;;;2.80;100.00;100513.71;633837;226;24898;-72
2020/12/02 02:53:28;;;;;;;64.50;23.03;;;;;;;2.78;100.00;100518.11;635770;226;25517;-72
2020/12/02 02:55:56;;;;;;;93.57;25.40;;;;;;;2.77;100.00;100509.58;633046;225;24959;-71
2020/12/02 02:58:25;;;;;;;85.93;26.03;;;;;;;2.82;100.00;100518.33;630717;226;27133;-72
2020/12/02 03:00:52;;;;;;;81.30;24.00;;;;;;;2.82;100.00;100520.44;630641;228;25062;-70
2020/12/02 03:03:20;;;;;;;104.60;32.50;;;;;;;2.84;100.00;100522.45;625362;227;32957;-72
2020/12/02 03:05:48;;;;;;;85.43;26.73;;;;;;;2.80;100.00;100520.95;645598;222;23812;-72
2020/12/02 03:08:16;;;;;;;79.47;24.80;;;;;;;2.79;100.00;100520.59;619073;228;27043;-72
2020/12/02 03:10:44;;;;;;;87.03;25.53;;;;;;;2.83;100.00;100521.27;630804;227;29140;-71
2020/12/02 03:13:16;;;;;;;82.37;24.43;;;;;;;2.81;100.00;100523.06;627289;225;24872;-73
2020/12/02 03:15:44;;;;;;;101.42;33.18;;;;;;;2.93;100.00;100517.23;620836;225;32936;-74
2020/12/02 03:18:12;;;;;;;89.43;28.87;;;;;;;2.85;100.00;100515.12;631184;226;23756;-72
2020/12/02 03:20:40;;;;;;;71.70;26.10;;;;;;;2.88;100.00;100517.50;638900;224;24974;-73
2020/12/02 03:23:09;;;;;;;75.03;25.70;;;;;;;2.82;100.00;100519.16;635147;226;24836;-71
2020/12/02 03:25:36;;;;;;;80.97;25.67;;;;;;;2.79;100.00;100518.02;645468;222;24928;-71
2020/12/02 03:28:04;;;;;;;68.67;23.83;;;;;;;2.80;100.00;100520.13;631713;227;24947;-71
2020/12/02 03:30:32;;;;;;;75.50;25.17;;;;;;;2.80;100.00;100518.84;631734;227;24868;-72
2020/12/02 03:33:00;;;;;;;70.80;22.83;;;;;;;2.71;100.00;100520.22;646394;222;24827;-75
2020/12/02 03:35:28;;;;;;;70.63;23.00;;;;;;;2.76;100.00;100515.64;644467;223;24843;-72
2020/12/02 03:37:57;;;;;;;57.13;20.73;;;;;;;2.80;100.00;100511.97;633757;226;24967;-71
2020/12/02 03:40:25;;;;;;;49.80;21.13;;;;;;;2.77;100.00;100514.72;637721;225;24882;-72
2020/12/02 03:42:56;;;;;;;57.37;20.77;;;;;;;2.82;100.00;100517.88;637022;224;25221;-71
2020/12/02 03:45:23;;;;;;;59.87;20.90;;;;;;;2.81;100.00;100516.19;633358;225;24898;-71
2020/12/02 03:47:51;;;;;;;50.97;20.07;;;;;;;2.82;100.00;100515.30;637955;225;24873;-73
2020/12/02 03:50:19;;;;;;;50.10;20.30;;;;;;;2.80;100.00;100511.14;638118;225;24963;-71
2020/12/02 03:52:46;;;;;;;53.83;20.83;;;;;;;2.82;100.00;100508.88;642664;222;28113;-72
2020/12/02 03:55:14;;;;;;;49.37;19.57;;;;;;;2.84;100.00;100512.19;633944;224;24863;-71
2020/12/02 03:57:42;;;;;;;52.20;21.83;;;;;;;2.90;100.00;100519.52;636504;226;24889;-72
2020/12/02 04:00:10;;;;;;;43.40;19.60;;;;;;;2.89;100.00;100515.77;636681;225;24951;-71
2020/12/02 04:02:38;;;;;;;58.20;20.50;;;;;;;2.89;100.00;100512.73;647583;222;24825;-72
2020/12/02 04:05:07;;;;;;;55.90;20.83;;;;;;;2.89;100.00;100510.63;636241;226;24951;-71
2020/12/02 04:07:35;;;;;;;61.27;22.57;;;;;;;2.87;100.00;100515.85;635981;225;24972;-71
2020/12/02 04:10:04;;;;;;;55.50;20.57;;;;;;;2.85;100.00;100511.27;637157;225;28146;-71
2020/12/02 04:12:32;;;;;;;59.60;21.97;;;;;;;2.78;100.00;100514.27;633659;225;24954;-71
2020/12/02 04:14:59;;;;;;;54.20;23.03;;;;;;;2.74;100.00;100513.62;637969;224;29180;-71
2020/12/02 04:17:27;;;;;;;57.80;21.93;;;;;;;2.68;100.00;100510.95;643598;223;24825;-71
2020/12/02 04:19:55;;;;;;;53.90;19.80;;;;;;;2.78;100.00;100503.53;629426;225;24949;-72
2020/12/02 04:22:23;;;;;;;55.53;21.87;;;;;;;2.84;100.00;100507.51;636464;225;24951;-72
2020/12/02 04:24:51;;;;;;;48.13;20.60;;;;;;;2.81;100.00;100505.09;645804;222;24926;-73
2020/12/02 04:27:19;;;;;;;48.07;21.57;;;;;;;2.81;100.00;100502.52;628748;228;24983;-71
2020/12/02 04:29:47;;;;;;;50.20;21.93;;;;;;;2.83;100.00;100501.55;630428;226;24989;-71
2020/12/02 04:32:15;;;;;;;52.93;21.70;;;;;;;2.86;100.00;100501.36;645166;222;24927;-71
2020/12/02 04:34:43;;;;;;;50.83;21.63;;;;;;;2.85;100.00;100499.71;630630;228;24958;-72
2020/12/02 04:37:10;;;;;;;45.60;19.67;;;;;;;2.83;100.00;100495.13;630460;227;24959;-73
2020/12/02 04:39:38;;;;;;;52.33;21.00;;;;;;;2.78;100.00;100502.25;642613;223;24828;-71
2020/12/02 04:42:06;;;;;;;50.30;19.73;;;;;;;2.74;100.00;100499.95;634289;225;24976;-71
2020/12/02 04:44:34;;;;;;;44.00;18.90;;;;;;;2.72;100.00;100496.66;637447;223;24938;-72
2020/12/02 04:47:02;;;;;;;58.77;19.47;;;;;;;2.65;100.00;100498.27;634027;225;24954;-75
2020/12/02 04:49:30;;;;;;;42.67;20.30;;;;;;;2.66;100.00;100494.78;638506;225;24965;-72
2020/12/02 04:51:58;;;;;;;44.83;18.97;;;;;;;2.55;100.00;100489.92;633797;225;24865;-72
2020/12/02 04:54:26;;;;;;;44.50;19.40;;;;;;;2.58;100.00;100493.59;632878;225;24943;-71
2020/12/02 04:56:54;;;;;;;42.37;18.20;;;;;;;2.60;100.00;100489.19;645162;222;24841;-72
2020/12/02 04:59:33;;;;;;;33.50;17.70;;;;;;;2.57;100.00;100491.48;628568;228;24889;-72
2020/12/02 05:02:01;;;;;;;37.73;18.97;;;;;;;2.57;100.00;100492.77;635791;225;26008;-72
2020/12/02 05:04:29;;;;;;;37.00;17.93;;;;;;;2.51;100.00;100492.27;639380;223;24909;-71
2020/12/02 05:07:07;;;;;;;34.80;18.13;;;;;;;2.57;100.00;100491.94;651395;220;24839;-71
2020/12/02 05:09:35;;;;;;;33.90;17.17;;;;;;;2.57;100.00;100495.78;638954;220;24899;-70
2020/12/02 05:12:04;;;;;;;35.87;18.20;;;;;;;2.49;100.00;100497.95;636384;225;24869;-72
2020/12/02 05:14:32;;;;;;;29.83;16.20;;;;;;;2.52;100.00;100492.18;638475;223;24841;-71
2020/12/02 05:17:06;;;;;;;31.20;17.30;;;;;;;2.43;100.00;100498.31;631800;227;24952;-72
2020/12/02 05:19:34;;;;;;;32.27;17.00;;;;;;;2.48;100.00;100497.13;626216;229;24978;-72
2020/12/02 05:22:05;;;;;;;35.03;17.40;;;;;;;2.44;100.00;100493.09;640647;222;24931;-72
2020/12/02 05:24:41;;;;;;;34.90;17.00;;;;;;;2.43;100.00;100494.46;633267;225;24903;-71
2020/12/02 05:27:09;;;;;;;38.73;18.40;;;;;;;2.42;100.00;100501.33;646424;221;24849;-71
2020/12/02 05:29:38;;;;;;;31.50;16.13;;;;;;;2.43;100.00;100501.70;640371;221;24957;-70
2020/12/02 05:32:06;;;;;;;32.07;15.37;;;;;;;2.42;100.00;100503.07;643707;221;24792;-72
2020/12/02 05:34:34;;;;;;;32.70;17.10;;;;;;;2.43;100.00;100507.30;644794;221;24934;-71
2020/12/02 05:37:02;;;;;;;34.83;16.83;;;;;;;2.47;100.00;100506.20;648967;221;24911;-73
2020/12/02 05:39:41;;;;;;;33.60;16.53;;;;;;;2.44;100.00;100507.66;648875;221;24997;-72
2020/12/02 05:42:07;;;;;;;35.73;16.30;;;;;;;2.43;100.00;100502.98;643496;221;24883;-72
2020/12/02 05:44:35;;;;;;;31.33;15.60;;;;;;;2.49;100.00;100505.65;636911;225;24941;-72
2020/12/02 05:47:03;;;;;;;31.03;15.37;;;;;;;2.39;100.00;100500.20;643462;222;27010;-72
2020/12/02 05:49:35;;;;;;;29.23;15.20;;;;;;;2.41;100.00;100506.09;645064;222;24902;-71
2020/12/02 05:52:03;;;;;;;34.30;16.17;;;;;;;2.41;100.00;100504.81;644866;221;24955;-73
2020/12/02 05:54:31;;;;;;;25.67;14.57;;;;;;;2.46;100.00;100505.83;645229;223;25247;-72
2020/12/02 05:56:59;;;;;;;31.30;15.40;;;;;;;2.40;100.00;100499.77;644982;223;24924;-72
2020/12/02 05:59:27;;;;;;;30.45;18.57;;;;;;;2.43;100.00;100504.27;639618;223;32703;-72
2020/12/02 06:01:57;;;;;;;34.80;17.50;;;;;;;2.42;100.00;100505.19;645305;223;23701;-72
2020/12/02 06:04:25;;;;;;;29.67;15.90;;;;;;;2.44;100.00;100503.81;645327;223;24930;-75
2020/12/02 06:06:54;;;;;;;29.47;15.93;;;;;;;2.41;100.00;100497.11;645342;221;24916;-72
2020/12/02 06:11:36;;;;;;;27.60;16.13;;;;;;;2.48;100.00;100495.02;657789;217;29731;-72
2020/12/02 06:14:07;;;;;;;30.37;14.50;;;;;;;2.48;100.00;100486.86;656951;216;24778;-72
2020/12/02 06:16:37;;;;;;;29.80;14.27;;;;;;;2.47;100.00;100498.50;642901;220;24852;-72
2020/12/02 06:19:08;;;;;;;27.00;14.30;;;;;;;2.48;100.00;100489.88;656236;216;24790;-71
2020/12/02 06:21:37;;;;;;;26.43;14.20;;;;;;;2.47;100.00;100492.08;644008;221;24828;-72
2020/12/02 06:24:05;;;;;;;27.83;14.43;;;;;;;2.38;100.00;100485.71;646547;221;26986;-72
2020/12/02 06:26:35;;;;;;;26.47;14.13;;;;;;;2.47;100.00;100481.81;648334;221;24837;-72
2020/12/02 06:29:03;;;;;;;25.80;14.77;;;;;;;2.45;100.00;100492.17;648196;220;24867;-72
2020/12/02 06:31:31;;;;;;;27.87;14.33;;;;;;;2.47;100.00;100484.38;635764;225;25187;-72
2020/12/02 06:33:59;;;;;;;28.07;14.60;;;;;;;2.40;100.00;100488.22;638164;224;24868;-72
2020/12/02 06:36:28;;;;;;;29.00;15.03;;;;;;;2.44;100.00;100489.23;630801;225;24877;-71
2020/12/02 06:38:56;;;;;;;30.70;14.13;;;;;;;2.45;100.00;100485.75;630876;228;24866;-72
2020/12/02 06:41:32;;;;;;;30.27;15.97;;;;;;;2.45;100.00;100479.80;645144;221;24891;-72
2020/12/02 06:44:01;;;;;;;26.00;14.30;;;;;;;2.41;100.00;100480.89;646617;221;26010;-71
2020/12/02 06:46:38;;;;;;;25.93;14.57;;;;;;;2.33;100.00;100480.84;626342;225;24872;-72
2020/12/02 06:49:06;;;;;;;29.53;15.77;;;;;;;2.35;100.00;100485.44;642811;221;24867;-71
2020/12/02 06:51:34;;;;;;;27.10;14.73;;;;;;;2.36;100.00;100487.09;637502;225;24880;-71
2020/12/02 06:54:01;;;;;;;30.60;14.93;;;;;;;2.44;100.00;100485.84;638433;223;29161;-71
2020/12/02 06:56:29;;;;;;;32.17;16.70;;;;;;;2.38;100.00;100482.69;643762;221;24963;-72
2020/12/02 06:59:02;;;;;;;31.20;18.00;;;;;;;2.49;100.00;100483.83;633331;220;32899;-71
2020/12/02 07:01:29;;;;;;;31.03;15.87;;;;;;;2.44;100.00;100484.56;625953;229;23781;-71
2020/12/02 07:03:58;;;;;;;24.30;14.20;;;;;;;2.47;100.00;100481.36;636705;226;25587;-72
2020/12/02 07:06:26;;;;;;;32.10;15.60;;;;;;;2.43;100.00;100479.89;629081;225;24889;-74
2020/12/02 07:08:59;;;;;;;26.33;14.60;;;;;;;2.50;100.00;100482.91;633352;225;24956;-71
2020/12/02 07:11:27;;;;;;;30.65;18.10;;;;;;;2.55;100.00;100478.37;638459;221;32696;-71
2020/12/02 07:13:55;;;;;;;29.80;16.07;;;;;;;2.49;100.00;100482.55;631827;227;23735;-71
2020/12/02 07:16:24;;;;;;;27.60;14.70;;;;;;;2.48;100.00;100488.59;640080;224;24848;-72
2020/12/02 07:18:55;;;;;;;28.50;15.77;;;;;;;2.52;100.00;100489.61;625435;229;24917;-72
2020/12/02 07:21:26;;;;;;;29.07;15.90;;;;;;;2.51;100.00;100484.56;630124;225;24883;-71
2020/12/02 07:23:54;;;;;;;30.03;15.87;;;;;;;2.43;100.00;100481.63;642212;221;24847;-71
2020/12/02 07:26:22;;;;;;;24.40;13.90;;;;;;;2.41;100.00;100482.17;635879;225;24898;-71
2020/12/02 07:28:58;;;;;;;28.37;15.20;;;;;;;2.37;100.00;100491.76;636561;226;24868;-72
2020/12/02 07:31:26;;;;;;;24.33;14.57;;;;;;;2.37;100.00;100485.34;636029;226;27024;-71
2020/12/02 07:34:05;;;;;;;25.13;14.40;;;;;;;2.32;100.00;100487.35;647820;221;24802;-72
2020/12/02 07:36:33;;;;;;;27.93;15.80;;;;;;;2.45;100.00;100486.21;636236;225;24875;-72
2020/12/02 07:39:02;;;;;;;31.83;15.47;;;;;;;2.48;100.00;100494.56;636142;224;24875;-72
2020/12/02 07:41:30;;;;;;;28.57;14.47;;;;;;;2.50;100.00;100492.73;636031;225;24862;-72
2020/12/02 07:43:57;;;;;;;29.48;17.75;;;;;;;2.60;100.00;100486.62;632170;223;32708;-71
2020/12/02 07:46:25;;;;;;;28.87;15.37;;;;;;;2.56;100.00;100486.44;630405;225;23782;-72
2020/12/02 07:48:53;;;;;;;28.37;15.27;;;;;;;2.42;100.00;100482.08;630800;223;24886;-72
2020/12/02 07:51:22;;;;;;;27.93;14.20;;;;;;;2.42;100.00;100479.98;639080;225;24863;-72
2020/12/02 07:53:54;;;;;;;27.27;13.87;;;;;;;2.42;100.00;100474.38;626109;229;24968;-73
2020/12/02 07:56:22;;;;;;;23.33;15.50;;;;;;;2.60;100.00;100478.46;624699;227;32853;-72
2020/12/02 07:58:51;;;;;;;21.60;13.07;;;;;;;2.56;100.00;100475.71;625802;229;24910;-71
2020/12/02 08:01:23;;;;;;;23.38;14.80;;;;;;;2.64;100.00;100470.12;632841;225;32738;-71
2020/12/02 08:03:51;;;;;;;23.40;13.23;;;;;;;2.64;100.00;100477.36;625420;230;24103;-73
2020/12/02 08:06:20;;;;;;;23.13;13.77;;;;;;;2.70;100.00;100476.66;637361;225;24918;-71
2020/12/02 08:08:46;;;;;;;23.77;15.18;;;;;;;2.70;100.00;100474.09;632202;225;32854;-72
2020/12/02 08:11:14;;;;;;;21.45;14.70;;;;;;;2.70;100.00;100471.06;623673;225;33580;-72
2020/12/02 08:13:49;;;;;;;24.47;13.53;;;;;;;2.66;100.00;100475.98;640455;223;26869;-71
2020/12/02 08:16:24;;;;;;;19.87;12.70;;;;;;;2.86;100.00;100476.14;637822;224;25092;-72
2020/12/02 08:18:52;;;;;;;20.57;11.83;;;;;;;2.61;99.70;100469.84;624253;229;24920;-71
2020/12/02 08:21:20;;;;;;;18.97;10.97;;;;;;;2.65;100.00;100475.16;644697;221;25888;-72
2020/12/02 08:23:51;;;;;;;21.07;11.33;;;;;;;2.55;99.89;100477.09;641057;223;32287;-73
2020/12/02 08:26:19;;;;;;;21.77;12.50;;;;;;;2.55;99.60;100474.52;639623;224;24834;-74
2020/12/02 08:28:47;;;;;;;18.20;11.73;;;;;;;2.60;99.98;100478.92;625541;230;24894;-73
2020/12/02 08:31:17;;;;;;;17.93;10.53;;;;;;;2.62;99.47;100471.49;630481;225;25217;-75
2020/12/02 08:34:09;;;;;;;23.67;12.80;;;;;;;2.70;99.80;100481.34;631785;225;24874;-73
2020/12/02 08:36:37;;;;;;;19.00;11.53;;;;;;;2.79;99.65;100481.25;639196;223;24864;-74
2020/12/02 08:39:05;;;;;;;20.47;12.03;;;;;;;2.86;99.17;100475.67;631924;225;24875;-76
2020/12/02 08:41:41;;;;;;;18.90;11.17;;;;;;;2.76;98.75;100469.41;649311;221;24845;-73
2020/12/02 08:44:09;;;;;;;25.03;13.40;;;;;;;2.77;99.29;100477.48;636141;225;24855;-73
2020/12/02 08:46:46;;;;;;;23.30;13.40;;;;;;;2.90;99.21;100475.86;632342;225;24852;-73
2020/12/02 08:49:14;;;;;;;25.17;15.53;;;;;;;3.04;98.83;100475.05;633134;225;43317;-73
2020/12/02 08:51:42;;;;;;;29.07;15.40;;;;;;;2.99;97.99;100475.78;650549;221;23706;-72
2020/12/02 08:54:10;;;;;;;25.27;13.63;;;;;;;2.82;98.28;100475.50;630087;225;24855;-73
2020/12/02 08:56:38;;;;;;;23.80;14.13;;;;;;;2.77;98.54;100479.23;645195;221;24825;-73
2020/12/02 08:59:06;;;;;;;20.20;12.37;;;;;;;2.72;97.67;100474.83;645509;221;24827;-73
2020/12/02 09:01:34;;;;;;;20.37;12.47;;;;;;;2.80;98.00;100477.30;645375;222;24848;-73
2020/12/02 09:04:02;;;;;;;18.47;10.53;;;;;;;2.78;97.99;100476.56;645610;222;24832;-74
2020/12/02 09:06:30;;;;;;;17.10;10.87;;;;;;;2.78;98.09;100473.17;645523;220;24858;-75
2020/12/02 09:08:57;;;;;;;20.57;11.27;;;;;;;2.86;97.87;100475.67;645475;222;24841;-72
2020/12/02 09:11:26;;;;;;;21.67;12.30;;;;;;;2.87;97.78;100464.48;644939;222;28076;-75
2020/12/02 09:13:54;;;;;;;20.67;12.17;;;;;;;2.88;97.66;100464.85;645926;221;24837;-73
2020/12/02 09:16:23;;;;;;;20.00;12.60;;;;;;;2.95;97.61;100460.98;644929;223;24835;-72
2020/12/02 09:18:52;;;;;;;21.90;12.40;;;;;;;2.96;98.12;100466.52;644820;223;24828;-73
2020/12/02 09:21:20;;;;;;;18.97;11.67;;;;;;;2.93;97.02;100459.44;646100;222;24824;-73
2020/12/02 09:23:48;;;;;;;19.60;12.47;;;;;;;2.89;97.24;100461.83;644805;222;24868;-73
2020/12/02 09:26:19;;;;;;;17.90;12.17;;;;;;;2.97;97.88;100464.32;631600;227;24886;-74
2020/12/02 09:28:46;;;;;;;19.37;11.67;;;;;;;2.93;97.56;100460.26;625602;229;24888;-73
2020/12/02 09:31:14;;;;;;;23.80;12.23;;;;;;;3.06;98.28;100465.96;630601;225;27054;-74
2020/12/02 09:33:42;;;;;;;20.80;12.77;;;;;;;3.14;97.83;100459.92;637727;222;24844;-74
2020/12/02 09:36:10;;;;;;;19.60;11.93;;;;;;;3.01;97.66;100455.14;630395;226;24919;-75
2020/12/02 09:38:38;;;;;;;19.63;12.03;;;;;;;3.11;97.72;100454.97;649919;220;26982;-73
2020/12/02 09:41:17;;;;;;;16.90;10.60;;;;;;;3.03;97.00;100448.16;647579;221;26350;-75
2020/12/02 09:43:54;;;;;;;19.85;14.20;;;;;;;3.16;97.45;100449.91;623468;225;32922;-73
2020/12/02 09:46:21;;;;;;;20.73;12.60;;;;;;;2.99;97.25;100443.67;650296;220;24832;-73
2020/12/02 09:48:49;;;;;;;17.30;12.50;;;;;;;2.95;97.22;100443.01;626796;229;24923;-73
2020/12/02 09:51:18;;;;;;;19.67;12.10;;;;;;;2.98;97.60;100445.42;646826;220;24829;-75
2020/12/02 09:53:47;;;;;;;20.50;12.30;;;;;;;2.96;97.23;100446.44;651717;220;24907;-73
2020/12/02 09:56:14;;;;;;;22.50;12.40;;;;;;;3.00;97.78;100445.33;638968;225;24948;-73
2020/12/02 09:58:42;;;;;;;21.93;12.90;;;;;;;3.13;96.99;100441.56;639093;225;24881;-72
2020/12/02 10:01:13;;;;;;;23.30;13.30;;;;;;;3.09;97.26;100436.22;651356;220;24868;-73
2020/12/02 10:04:02;;;;;;;19.43;11.53;;;;;;;3.19;97.02;100439.91;638254;225;24869;-73
2020/12/02 10:06:55;;;;;;;20.53;12.20;;;;;;;3.12;97.58;100438.64;638715;225;26276;-73
2020/12/02 10:09:39;;;;;;;21.20;14.35;;;;;;;3.07;96.57;100427.78;631556;224;33001;-74
2020/12/02 10:12:09;;;;;;;23.65;15.25;;;;;;;3.24;96.23;100434.05;637418;221;32709;-75
2020/12/02 10:14:50;;;;;;;24.07;13.60;;;;;;;3.21;96.27;100420.07;629131;227;23784;-74
2020/12/02 10:17:20;;;;;;;19.37;11.97;;;;;;;3.13;96.16;100424.41;640332;224;24841;-73
2020/12/02 10:20:00;;;;;;;20.73;12.60;;;;;;;3.27;96.85;100418.44;640352;223;24832;-73
2020/12/02 10:22:34;;;;;;;19.63;13.10;;;;;;;3.18;97.06;100413.84;641211;222;27986;-73
2020/12/02 10:25:20;;;;;;;20.57;12.93;;;;;;;3.16;97.00;100413.11;635295;226;24856;-74
2020/12/02 10:28:03;;;;;;;19.27;11.60;;;;;;;3.09;96.19;100406.67;647657;222;25176;-73
2020/12/02 10:30:31;;;;;;;21.07;14.58;;;;;;;3.20;96.07;100408.97;638643;221;32765;-73
2020/12/02 10:33:06;;;;;;;21.10;13.13;;;;;;;3.04;96.50;100403.57;629025;228;25903;-74
2020/12/02 10:35:34;;;;;;;22.60;12.70;;;;;;;3.03;97.01;100402.75;631599;227;28051;-74
2020/12/02 10:38:02;;;;;;;21.10;13.00;;;;;;;3.07;97.70;100396.95;632088;227;24865;-75
2020/12/02 10:40:30;;;;;;;23.07;12.50;;;;;;;3.25;97.62;100399.25;631917;227;25551;-73
2020/12/02 10:42:59;;;;;;;22.17;12.60;;;;;;;3.26;97.27;100396.22;632527;225;24922;-73
2020/12/02 10:45:27;;;;;;;21.10;13.33;;;;;;;3.15;96.90;100392.19;636634;224;24851;-73
2020/12/02 10:48:03;;;;;;;19.80;12.30;;;;;;;3.08;97.04;100384.48;632413;225;27043;-72
2020/12/02 10:50:31;;;;;;;18.97;12.40;;;;;;;3.14;97.46;100382.84;635626;226;24942;-73
2020/12/02 10:52:59;;;;;;;21.07;11.80;;;;;;;3.11;97.24;100379.17;635315;226;24897;-73
2020/12/02 10:55:27;;;;;;;20.00;11.27;;;;;;;2.97;97.48;100380.84;635443;224;27065;-73
2020/12/02 10:57:56;;;;;;;21.93;12.70;;;;;;;3.03;96.79;100368.53;636816;225;24928;-73
2020/12/02 11:00:24;;;;;;;24.03;13.87;;;;;;;2.95;97.14;100359.52;642351;221;25139;-73
2020/12/02 11:03:08;;;;;;;22.67;13.23;;;;;;;2.95;97.64;100356.95;626539;229;24976;-74
2020/12/02 11:05:36;;;;;;;27.30;16.20;;;;;;;3.14;98.16;100359.25;620797;229;33059;-73
2020/12/02 11:08:04;;;;;;;19.93;12.97;;;;;;;3.02;97.40;100349.72;639327;225;23754;-74
2020/12/02 11:10:32;;;;;;;20.90;13.40;;;;;;;3.01;97.07;100347.25;626327;229;24924;-73
2020/12/02 11:13:07;;;;;;;23.70;12.93;;;;;;;2.98;98.01;100345.23;645688;221;24838;-73
2020/12/02 11:15:44;;;;;;;24.97;14.03;;;;;;;3.08;97.89;100342.91;638636;225;24840;-74
2020/12/02 11:18:18;;;;;;;20.20;12.60;;;;;;;3.07;97.18;100334.84;650699;221;24844;-74
2020/12/02 11:20:48;;;;;;;25.30;12.83;;;;;;;3.08;97.57;100325.38;635465;225;25171;-73
2020/12/02 11:23:22;;;;;;;25.32;15.55;;;;;;;3.04;97.44;100320.91;642970;221;32747;-77
2020/12/02 11:25:52;;;;;;;24.17;15.03;;;;;;;3.07;97.25;100316.03;632251;225;23739;-75